WLF1632 YMML-YSSY
Flight info
| Callsign | WLF1632 |
|---|---|
| Flight time | 1h 1m |
| Altitude | 37000 |
| Route | ML H129 DOSEL Y59 RIVET |
| Aircraft | A320/M-SDE3FGHIRWY/LB1 |
Departure
| Time | 2026-05-08 00:48 |
|---|---|
| Airport | Melbourne Airport (YMML) |
Arrival
| Time | 2026-05-08 01:49 |
|---|---|
| Airport | Sydney Kingsford Smith International Airport (YSSY) |
| Time | Latitude | Longitude | Altitude | Speed | Heading |
|---|---|---|---|---|---|
| 2026-05-08 00:32 | -37.66613 | 144.84971 | 402 ft | 0 kts | 222° |
| 2026-05-08 00:40 | -37.66610 | 144.84976 | 404 ft | 4 kts | 223° |
| 2026-05-08 00:40 | -37.66590 | 144.84999 | 402 ft | 4 kts | 220° |
| 2026-05-08 00:40 | -37.66568 | 144.85015 | 403 ft | 4 kts | 188° |
| 2026-05-08 00:40 | -37.66543 | 144.85018 | 404 ft | 2 kts | 187° |
| 2026-05-08 00:41 | -37.66537 | 144.85018 | 402 ft | 0 kts | 187° |
| 2026-05-08 00:45 | -37.66545 | 144.85001 | 404 ft | 2 kts | 265° |
| 2026-05-08 00:46 | -37.66546 | 144.84983 | 401 ft | 4 kts | 265° |
| 2026-05-08 00:46 | -37.66547 | 144.84930 | 404 ft | 9 kts | 269° |
| 2026-05-08 00:46 | -37.66546 | 144.84830 | 406 ft | 14 kts | 281° |
| 2026-05-08 00:46 | -37.66458 | 144.84775 | 409 ft | 16 kts | 357° |
| 2026-05-08 00:47 | -37.66333 | 144.84786 | 412 ft | 20 kts | 4° |
| 2026-05-08 00:47 | -37.66223 | 144.84762 | 413 ft | 12 kts | 289° |
| 2026-05-08 00:47 | -37.66223 | 144.84743 | 413 ft | 0 kts | 271° |
| 2026-05-08 00:47 | -37.66197 | 144.84244 | 411 ft | 98 kts | 273° |
| 2026-05-08 00:48 | -37.66160 | 144.83531 | 416 ft | 141 kts | 273° |
| 2026-05-08 00:48 | -37.66155 | 144.82177 | 1000 ft | 153 kts | 267° |
| 2026-05-08 00:48 | -37.66091 | 144.80827 | 1899 ft | 156 kts | 269° |
| 2026-05-08 00:48 | -37.65983 | 144.79469 | 2618 ft | 159 kts | 268° |
| 2026-05-08 00:49 | -37.65871 | 144.77989 | 2893 ft | 179 kts | 268° |
| 2026-05-08 00:49 | -37.65758 | 144.76315 | 3172 ft | 204 kts | 268° |
| 2026-05-08 00:49 | -37.65646 | 144.74424 | 3586 ft | 227 kts | 267° |
| 2026-05-08 00:49 | -37.65534 | 144.72349 | 4071 ft | 248 kts | 268° |
| 2026-05-08 00:50 | -37.65409 | 144.70171 | 5022 ft | 249 kts | 268° |
| 2026-05-08 00:50 | -37.65079 | 144.68011 | 5942 ft | 259 kts | 285° |
| 2026-05-08 00:50 | -37.64089 | 144.66026 | 6762 ft | 277 kts | 307° |
| 2026-05-08 00:50 | -37.62469 | 144.64580 | 7497 ft | 297 kts | 332° |
| 2026-05-08 00:51 | -37.60466 | 144.63768 | 8224 ft | 306 kts | 339° |
| 2026-05-08 00:51 | -37.58375 | 144.63086 | 8956 ft | 316 kts | 348° |
| 2026-05-08 00:51 | -37.56143 | 144.63052 | 9708 ft | 326 kts | 7° |
| 2026-05-08 00:51 | -37.53922 | 144.63822 | 10262 ft | 341 kts | 25° |
| 2026-05-08 00:52 | -37.51900 | 144.65437 | 10475 ft | 358 kts | 46° |
| 2026-05-08 00:52 | -37.50278 | 144.67832 | 10961 ft | 363 kts | 58° |
| 2026-05-08 00:52 | -37.48757 | 144.70399 | 11602 ft | 367 kts | 57° |
| 2026-05-08 00:52 | -37.47268 | 144.73023 | 12304 ft | 369 kts | 63° |
| 2026-05-08 00:53 | -37.45977 | 144.75821 | 12996 ft | 371 kts | 64° |
| 2026-05-08 00:53 | -37.44678 | 144.78658 | 13658 ft | 376 kts | 64° |
| 2026-05-08 00:53 | -37.43362 | 144.81526 | 14292 ft | 379 kts | 64° |
| 2026-05-08 00:53 | -37.42035 | 144.84411 | 14862 ft | 383 kts | 64° |
| 2026-05-08 00:54 | -37.40691 | 144.87329 | 15431 ft | 387 kts | 64° |
| 2026-05-08 00:54 | -37.39337 | 144.90266 | 16026 ft | 390 kts | 64° |
| 2026-05-08 00:54 | -37.37970 | 144.93230 | 16593 ft | 393 kts | 64° |
| 2026-05-08 00:54 | -37.36591 | 144.96219 | 17168 ft | 396 kts | 63° |
| 2026-05-08 00:55 | -37.35222 | 144.99188 | 17743 ft | 399 kts | 63° |
| 2026-05-08 00:55 | -37.33822 | 145.02225 | 18310 ft | 403 kts | 63° |
| 2026-05-08 00:55 | -37.32407 | 145.05293 | 18805 ft | 407 kts | 63° |
| 2026-05-08 00:55 | -37.30977 | 145.08388 | 19290 ft | 411 kts | 63° |
| 2026-05-08 00:56 | -37.29536 | 145.11507 | 19804 ft | 414 kts | 63° |
| 2026-05-08 00:56 | -37.28086 | 145.14641 | 20303 ft | 417 kts | 63° |
| 2026-05-08 00:56 | -37.26624 | 145.17797 | 20792 ft | 420 kts | 63° |
| 2026-05-08 00:56 | -37.25150 | 145.20981 | 21272 ft | 423 kts | 63° |
| 2026-05-08 00:57 | -37.23667 | 145.24182 | 21716 ft | 426 kts | 63° |
| 2026-05-08 00:57 | -37.22170 | 145.27404 | 22184 ft | 429 kts | 63° |
| 2026-05-08 00:57 | -37.20654 | 145.30659 | 22594 ft | 433 kts | 63° |
| 2026-05-08 00:57 | -37.19130 | 145.33925 | 23055 ft | 436 kts | 63° |
| 2026-05-08 00:58 | -37.17612 | 145.37175 | 23509 ft | 439 kts | 63° |
| 2026-05-08 00:58 | -37.15999 | 145.40440 | 23930 ft | 444 kts | 57° |
| 2026-05-08 00:58 | -37.14194 | 145.43594 | 24293 ft | 447 kts | 57° |
| 2026-05-08 00:58 | -37.12374 | 145.46759 | 24676 ft | 449 kts | 57° |
| 2026-05-08 00:59 | -37.10541 | 145.49944 | 25060 ft | 451 kts | 57° |
| 2026-05-08 00:59 | -37.08702 | 145.53142 | 25452 ft | 454 kts | 57° |
| 2026-05-08 00:59 | -37.06852 | 145.56364 | 25823 ft | 457 kts | 57° |
| 2026-05-08 00:59 | -37.04991 | 145.59603 | 26186 ft | 459 kts | 57° |
| 2026-05-08 01:00 | -37.03122 | 145.62854 | 26553 ft | 462 kts | 57° |
| 2026-05-08 01:00 | -37.01242 | 145.66121 | 26906 ft | 464 kts | 57° |
| 2026-05-08 01:00 | -36.99344 | 145.69410 | 27285 ft | 466 kts | 57° |
| 2026-05-08 01:00 | -36.97440 | 145.72703 | 27623 ft | 469 kts | 57° |
| 2026-05-08 01:01 | -36.95525 | 145.76011 | 27985 ft | 471 kts | 57° |
| 2026-05-08 01:01 | -36.93602 | 145.79333 | 28361 ft | 473 kts | 57° |
| 2026-05-08 01:01 | -36.91664 | 145.82680 | 28672 ft | 477 kts | 57° |
| 2026-05-08 01:01 | -36.89709 | 145.86050 | 29008 ft | 480 kts | 57° |
| 2026-05-08 01:02 | -36.87767 | 145.89390 | 29343 ft | 482 kts | 57° |
| 2026-05-08 01:02 | -36.85764 | 145.92835 | 29708 ft | 484 kts | 57° |
| 2026-05-08 01:02 | -36.83808 | 145.96202 | 30048 ft | 487 kts | 57° |
| 2026-05-08 01:02 | -36.81815 | 145.99636 | 30368 ft | 489 kts | 57° |
| 2026-05-08 01:03 | -36.79812 | 146.03085 | 30675 ft | 491 kts | 57° |
| 2026-05-08 01:03 | -36.77793 | 146.06553 | 30972 ft | 494 kts | 57° |
| 2026-05-08 01:03 | -36.75763 | 146.10024 | 31213 ft | 497 kts | 57° |
| 2026-05-08 01:03 | -36.73717 | 146.13513 | 31506 ft | 499 kts | 57° |
| 2026-05-08 01:04 | -36.71664 | 146.17016 | 31806 ft | 501 kts | 57° |
| 2026-05-08 01:04 | -36.69604 | 146.20534 | 32090 ft | 503 kts | 57° |
| 2026-05-08 01:04 | -36.67539 | 146.24055 | 32476 ft | 502 kts | 57° |
| 2026-05-08 01:04 | -36.65478 | 146.27562 | 32908 ft | 501 kts | 56° |
| 2026-05-08 01:05 | -36.63417 | 146.31065 | 33337 ft | 500 kts | 56° |
| 2026-05-08 01:05 | -36.61365 | 146.34549 | 33775 ft | 499 kts | 57° |
| 2026-05-08 01:05 | -36.59342 | 146.37983 | 34191 ft | 498 kts | 57° |
| 2026-05-08 01:05 | -36.57294 | 146.41460 | 34575 ft | 496 kts | 56° |
| 2026-05-08 01:06 | -36.55250 | 146.44926 | 34952 ft | 495 kts | 56° |
| 2026-05-08 01:06 | -36.53218 | 146.48369 | 35324 ft | 493 kts | 56° |
| 2026-05-08 01:06 | -36.51187 | 146.51802 | 35690 ft | 492 kts | 56° |
| 2026-05-08 01:06 | -36.49159 | 146.55226 | 36025 ft | 491 kts | 56° |
| 2026-05-08 01:07 | -36.47142 | 146.58632 | 36380 ft | 489 kts | 56° |
| 2026-05-08 01:07 | -36.45133 | 146.62027 | 36718 ft | 487 kts | 56° |
| 2026-05-08 01:07 | -36.43121 | 146.65422 | 37045 ft | 486 kts | 56° |
| 2026-05-08 01:07 | -36.41115 | 146.68802 | 37212 ft | 486 kts | 55° |
| 2026-05-08 01:08 | -36.39114 | 146.72167 | 37243 ft | 484 kts | 55° |
| 2026-05-08 01:08 | -36.35117 | 146.78859 | 37225 ft | 482 kts | 55° |
| 2026-05-08 01:09 | -36.31156 | 146.85489 | 37253 ft | 482 kts | 55° |
| 2026-05-08 01:09 | -36.27136 | 146.92223 | 37241 ft | 492 kts | 55° |
| 2026-05-08 01:10 | -36.23007 | 146.99124 | 37240 ft | 503 kts | 55° |
| 2026-05-08 01:10 | -36.18813 | 147.06109 | 37229 ft | 506 kts | 54° |
| 2026-05-08 01:11 | -36.14599 | 147.13098 | 37242 ft | 507 kts | 54° |
| 2026-05-08 01:11 | -36.10378 | 147.20104 | 37240 ft | 509 kts | 54° |
| 2026-05-08 01:12 | -36.06146 | 147.27117 | 37224 ft | 509 kts | 54° |
| 2026-05-08 01:12 | -36.01907 | 147.34123 | 37254 ft | 509 kts | 54° |
| 2026-05-08 01:13 | -35.97692 | 147.41080 | 37273 ft | 509 kts | 54° |
| 2026-05-08 01:13 | -35.93444 | 147.48076 | 37262 ft | 510 kts | 54° |
| 2026-05-08 01:14 | -35.89177 | 147.55071 | 37257 ft | 510 kts | 54° |
| 2026-05-08 01:14 | -35.84898 | 147.62069 | 37258 ft | 510 kts | 53° |
| 2026-05-08 01:15 | -35.80657 | 147.68995 | 37280 ft | 510 kts | 54° |
| 2026-05-08 01:15 | -35.76381 | 147.75973 | 37245 ft | 510 kts | 53° |
| 2026-05-08 01:16 | -35.72105 | 147.82944 | 37244 ft | 510 kts | 53° |
| 2026-05-08 01:16 | -35.67821 | 147.89909 | 37250 ft | 510 kts | 53° |
| 2026-05-08 01:17 | -35.63523 | 147.96873 | 37257 ft | 511 kts | 53° |
| 2026-05-08 01:17 | -35.59224 | 148.03818 | 37255 ft | 510 kts | 53° |
| 2026-05-08 01:18 | -35.54932 | 148.10759 | 37251 ft | 510 kts | 53° |
| 2026-05-08 01:18 | -35.50639 | 148.17693 | 37225 ft | 510 kts | 52° |
| 2026-05-08 01:19 | -35.46361 | 148.24583 | 37247 ft | 511 kts | 52° |
| 2026-05-08 01:19 | -35.42053 | 148.31508 | 37236 ft | 511 kts | 52° |
| 2026-05-08 01:20 | -35.37730 | 148.38436 | 37226 ft | 512 kts | 52° |
| 2026-05-08 01:20 | -35.33386 | 148.45374 | 37223 ft | 512 kts | 52° |
| 2026-05-08 01:21 | -35.29044 | 148.52307 | 37227 ft | 514 kts | 52° |
| 2026-05-08 01:21 | -35.24709 | 148.59220 | 37207 ft | 515 kts | 52° |
| 2026-05-08 01:22 | -35.20328 | 148.66182 | 37196 ft | 516 kts | 52° |
| 2026-05-08 01:22 | -35.15936 | 148.73142 | 37191 ft | 517 kts | 52° |
| 2026-05-08 01:23 | -35.11540 | 148.80106 | 37221 ft | 518 kts | 52° |
| 2026-05-08 01:23 | -35.07128 | 148.87077 | 37217 ft | 519 kts | 52° |
| 2026-05-08 01:24 | -35.02709 | 148.94047 | 37154 ft | 521 kts | 52° |
| 2026-05-08 01:24 | -35.00493 | 148.97537 | 36695 ft | 518 kts | 52° |
| 2026-05-08 01:24 | -34.98297 | 149.00994 | 35726 ft | 515 kts | 52° |
| 2026-05-08 01:24 | -34.96130 | 149.04405 | 34906 ft | 516 kts | 53° |
| 2026-05-08 01:25 | -34.93934 | 149.07858 | 34382 ft | 514 kts | 53° |
| 2026-05-08 01:25 | -34.91744 | 149.11297 | 33747 ft | 513 kts | 53° |
| 2026-05-08 01:25 | -34.89551 | 149.14722 | 33200 ft | 510 kts | 53° |
| 2026-05-08 01:25 | -34.87376 | 149.18116 | 32612 ft | 507 kts | 53° |
| 2026-05-08 01:26 | -34.85211 | 149.21493 | 32034 ft | 505 kts | 53° |
| 2026-05-08 01:26 | -34.83055 | 149.24857 | 31466 ft | 502 kts | 53° |
| 2026-05-08 01:26 | -34.80912 | 149.28209 | 30880 ft | 500 kts | 53° |
| 2026-05-08 01:26 | -34.78781 | 149.31543 | 30417 ft | 496 kts | 53° |
| 2026-05-08 01:27 | -34.76668 | 149.34843 | 29746 ft | 494 kts | 53° |
| 2026-05-08 01:27 | -34.74586 | 149.38133 | 29311 ft | 485 kts | 56° |
| 2026-05-08 01:27 | -34.72862 | 149.41572 | 28736 ft | 480 kts | 65° |
| 2026-05-08 01:27 | -34.71321 | 149.45138 | 28296 ft | 473 kts | 65° |
| 2026-05-08 01:28 | -34.69797 | 149.48652 | 27866 ft | 467 kts | 65° |
| 2026-05-08 01:28 | -34.68286 | 149.52120 | 27435 ft | 461 kts | 65° |
| 2026-05-08 01:28 | -34.66792 | 149.55542 | 27032 ft | 456 kts | 65° |
| 2026-05-08 01:28 | -34.65311 | 149.58927 | 26630 ft | 451 kts | 65° |
| 2026-05-08 01:29 | -34.63840 | 149.62277 | 26223 ft | 448 kts | 65° |
| 2026-05-08 01:29 | -34.62379 | 149.65603 | 25800 ft | 445 kts | 65° |
| 2026-05-08 01:29 | -34.60928 | 149.68910 | 25397 ft | 441 kts | 65° |
| 2026-05-08 01:29 | -34.59492 | 149.72187 | 24983 ft | 439 kts | 65° |
| 2026-05-08 01:30 | -34.58061 | 149.75456 | 24571 ft | 436 kts | 65° |
| 2026-05-08 01:30 | -34.56639 | 149.78699 | 24151 ft | 434 kts | 65° |
| 2026-05-08 01:30 | -34.55222 | 149.81920 | 23707 ft | 432 kts | 65° |
| 2026-05-08 01:30 | -34.53812 | 149.85118 | 23238 ft | 428 kts | 65° |
| 2026-05-08 01:31 | -34.52410 | 149.88293 | 22800 ft | 424 kts | 65° |
| 2026-05-08 01:31 | -34.51022 | 149.91438 | 22378 ft | 422 kts | 65° |
| 2026-05-08 01:31 | -34.49637 | 149.94573 | 21929 ft | 419 kts | 65° |
| 2026-05-08 01:31 | -34.48281 | 149.97637 | 21500 ft | 416 kts | 65° |
| 2026-05-08 01:32 | -34.46900 | 150.00754 | 21071 ft | 413 kts | 65° |
| 2026-05-08 01:32 | -34.45561 | 150.03778 | 20651 ft | 411 kts | 65° |
| 2026-05-08 01:32 | -34.44211 | 150.06829 | 20184 ft | 410 kts | 65° |
| 2026-05-08 01:32 | -34.42868 | 150.09868 | 19762 ft | 408 kts | 65° |
| 2026-05-08 01:33 | -34.41527 | 150.12895 | 19327 ft | 407 kts | 65° |
| 2026-05-08 01:33 | -34.40193 | 150.15900 | 19047 ft | 402 kts | 65° |
| 2026-05-08 01:33 | -34.38867 | 150.18876 | 18819 ft | 402 kts | 65° |
| 2026-05-08 01:33 | -34.37543 | 150.21846 | 18449 ft | 400 kts | 65° |
| 2026-05-08 01:34 | -34.36217 | 150.24816 | 17929 ft | 401 kts | 65° |
| 2026-05-08 01:34 | -34.34889 | 150.27786 | 17428 ft | 401 kts | 65° |
| 2026-05-08 01:34 | -34.33565 | 150.30745 | 16902 ft | 399 kts | 65° |
| 2026-05-08 01:34 | -34.32261 | 150.33654 | 16438 ft | 397 kts | 65° |
| 2026-05-08 01:35 | -34.30949 | 150.36588 | 15936 ft | 397 kts | 64° |
| 2026-05-08 01:35 | -34.29636 | 150.39523 | 15440 ft | 395 kts | 64° |
| 2026-05-08 01:35 | -34.28331 | 150.42446 | 14978 ft | 394 kts | 64° |
| 2026-05-08 01:35 | -34.27036 | 150.45349 | 14560 ft | 391 kts | 64° |
| 2026-05-08 01:36 | -34.25748 | 150.48233 | 14147 ft | 389 kts | 63° |
| 2026-05-08 01:36 | -34.24896 | 150.50133 | 13850 ft | 387 kts | 64° |
| 2026-05-08 01:36 | -34.23619 | 150.52986 | 13385 ft | 384 kts | 63° |
| 2026-05-08 01:36 | -34.21950 | 150.56717 | 12839 ft | 379 kts | 63° |
| 2026-05-08 01:37 | -34.20703 | 150.59503 | 12435 ft | 375 kts | 63° |
| 2026-05-08 01:37 | -34.19470 | 150.62259 | 12034 ft | 370 kts | 63° |
| 2026-05-08 01:37 | -34.18660 | 150.64066 | 11743 ft | 368 kts | 63° |
| 2026-05-08 01:37 | -34.17036 | 150.67678 | 11232 ft | 364 kts | 63° |
| 2026-05-08 01:38 | -34.16241 | 150.69447 | 11002 ft | 360 kts | 63° |
| 2026-05-08 01:38 | -34.15049 | 150.72093 | 10658 ft | 356 kts | 63° |
| 2026-05-08 01:38 | -34.13870 | 150.74711 | 10288 ft | 352 kts | 63° |
| 2026-05-08 01:38 | -34.12730 | 150.77241 | 10150 ft | 333 kts | 62° |
| 2026-05-08 01:39 | -34.11637 | 150.79659 | 9699 ft | 324 kts | 62° |
| 2026-05-08 01:39 | -34.10567 | 150.82024 | 9165 ft | 318 kts | 63° |
| 2026-05-08 01:39 | -34.09510 | 150.84358 | 8779 ft | 316 kts | 63° |
| 2026-05-08 01:39 | -34.08467 | 150.86673 | 8487 ft | 313 kts | 63° |
| 2026-05-08 01:40 | -34.07434 | 150.88971 | 8180 ft | 310 kts | 64° |
| 2026-05-08 01:40 | -34.06410 | 150.91252 | 7878 ft | 309 kts | 64° |
| 2026-05-08 01:40 | -34.05389 | 150.93520 | 7589 ft | 307 kts | 64° |
| 2026-05-08 01:40 | -34.04373 | 150.95766 | 7312 ft | 304 kts | 64° |
| 2026-05-08 01:41 | -34.03362 | 150.98001 | 7025 ft | 302 kts | 64° |
| 2026-05-08 01:41 | -34.02361 | 151.00218 | 6741 ft | 300 kts | 64° |
| 2026-05-08 01:41 | -34.01372 | 151.02433 | 6448 ft | 299 kts | 65° |
| 2026-05-08 01:41 | -34.00409 | 151.04610 | 6187 ft | 296 kts | 66° |
| 2026-05-08 01:42 | -33.99760 | 151.06913 | 5869 ft | 287 kts | 90° |
| 2026-05-08 01:42 | -33.99758 | 151.09317 | 5486 ft | 284 kts | 93° |
| 2026-05-08 01:42 | -33.99560 | 151.11664 | 5150 ft | 286 kts | 88° |
| 2026-05-08 01:42 | -33.99281 | 151.14036 | 4865 ft | 285 kts | 87° |
| 2026-05-08 01:43 | -33.99002 | 151.16396 | 4604 ft | 282 kts | 87° |
| 2026-05-08 01:43 | -33.98724 | 151.18703 | 4472 ft | 273 kts | 87° |
| 2026-05-08 01:43 | -33.98449 | 151.20888 | 4337 ft | 255 kts | 87° |
| 2026-05-08 01:43 | -33.98184 | 151.22942 | 4079 ft | 244 kts | 86° |
| 2026-05-08 01:44 | -33.97933 | 151.24948 | 3690 ft | 241 kts | 86° |
| 2026-05-08 01:44 | -33.97691 | 151.26952 | 3358 ft | 242 kts | 87° |
| 2026-05-08 01:44 | -33.97448 | 151.28957 | 3081 ft | 241 kts | 87° |
| 2026-05-08 01:44 | -33.97185 | 151.30954 | 3002 ft | 243 kts | 78° |
| 2026-05-08 01:45 | -33.96405 | 151.32774 | 3009 ft | 249 kts | 47° |
| 2026-05-08 01:45 | -33.95002 | 151.33932 | 3012 ft | 246 kts | 12° |
| 2026-05-08 01:45 | -33.93357 | 151.34006 | 3009 ft | 228 kts | 335° |
| 2026-05-08 01:45 | -33.92059 | 151.33161 | 2998 ft | 202 kts | 307° |
| 2026-05-08 01:46 | -33.91306 | 151.31824 | 3002 ft | 187 kts | 281° |
| 2026-05-08 01:46 | -33.91119 | 151.30388 | 2999 ft | 166 kts | 258° |
| 2026-05-08 01:46 | -33.91356 | 151.29119 | 3015 ft | 146 kts | 248° |
| 2026-05-08 01:46 | -33.91642 | 151.27986 | 2673 ft | 140 kts | 247° |
| 2026-05-08 01:47 | -33.91927 | 151.26861 | 2185 ft | 138 kts | 253° |
| 2026-05-08 01:47 | -33.92149 | 151.25793 | 1847 ft | 127 kts | 255° |
| 2026-05-08 01:47 | -33.92372 | 151.24781 | 1448 ft | 125 kts | 255° |
| 2026-05-08 01:48 | -33.92864 | 151.22745 | 685 ft | 120 kts | 254° |
| 2026-05-08 01:48 | -33.93096 | 151.21807 | 536 ft | 117 kts | 253° |
| 2026-05-08 01:48 | -33.93316 | 151.20862 | 390 ft | 117 kts | 257° |
| 2026-05-08 01:48 | -33.93535 | 151.19903 | 246 ft | 119 kts | 255° |
| 2026-05-08 01:49 | -33.93766 | 151.18945 | 50 ft | 118 kts | 257° |
| 2026-05-08 01:49 | -33.93946 | 151.18139 | 29 ft | 67 kts | 253° |
| 2026-05-08 01:49 | -33.94000 | 151.17928 | 28 ft | 3 kts | 252° |
| 2026-05-08 01:49 | -33.94012 | 151.17823 | 29 ft | 15 kts | 294° |
| 2026-05-08 01:50 | -33.93958 | 151.17794 | 29 ft | 0 kts | 349° |
| 2026-05-08 01:50 | -33.93950 | 151.17792 | 29 ft | 2 kts | 349° |
| 2026-05-08 01:51 | -33.93932 | 151.17787 | 29 ft | 4 kts | 348° |
| 2026-05-08 01:51 | -33.93900 | 151.17780 | 29 ft | 6 kts | 348° |
| 2026-05-08 01:51 | -33.93857 | 151.17761 | 30 ft | 8 kts | 320° |
| 2026-05-08 01:51 | -33.93816 | 151.17710 | 30 ft | 9 kts | 328° |
| 2026-05-08 01:52 | -33.93755 | 151.17687 | 30 ft | 0 kts | 349° |
| 2026-05-08 01:52 | -33.93754 | 151.17687 | 30 ft | 0 kts | 349° |
| 2026-05-08 01:52 | -33.93744 | 151.17685 | 30 ft | 3 kts | 349° |
| 2026-05-08 01:52 | -33.93718 | 151.17678 | 30 ft | 5 kts | 346° |
| 2026-05-08 01:53 | -33.93678 | 151.17656 | 30 ft | 8 kts | 332° |
| 2026-05-08 01:53 | -33.93625 | 151.17623 | 30 ft | 7 kts | 349° |
| 2026-05-08 01:53 | -33.93604 | 151.17652 | 30 ft | 4 kts | 65° |
| 2026-05-08 01:53 | -33.93599 | 151.17676 | 30 ft | 2 kts | 77° |
| 2026-05-08 01:54 | -33.93597 | 151.17683 | 30 ft | 2 kts | 77° |
| 2026-05-08 01:54 | -33.93594 | 151.17700 | 30 ft | 0 kts | 77° |